createdAt,value
2019-03-29T00:05:51.956Z,3.30
2019-03-29T00:15:57.667Z,3.10
2019-03-29T00:26:03.199Z,2.90
2019-03-29T00:36:09.841Z,2.90
2019-03-29T00:46:16.022Z,2.80
2019-03-29T00:56:21.595Z,2.60
2019-03-29T01:06:27.260Z,2.80
2019-03-29T01:16:32.851Z,2.80
2019-03-29T01:26:38.516Z,2.30
2019-03-29T01:36:44.277Z,2.20
2019-03-29T01:46:50.842Z,1.90
2019-03-29T01:56:56.649Z,1.50
2019-03-29T02:07:02.233Z,1.30
2019-03-29T02:17:07.905Z,1.20
2019-03-29T02:27:13.603Z,1.00
2019-03-29T02:37:19.267Z,0.90
2019-03-29T02:47:24.967Z,0.60
2019-03-29T02:57:30.748Z,0.70
2019-03-29T03:07:36.304Z,0.60
2019-03-29T03:17:41.893Z,0.70
2019-03-29T03:27:47.527Z,0.60
2019-03-29T03:37:53.283Z,0.50
2019-03-29T03:47:59.003Z,0.50
2019-03-29T03:58:05.347Z,0.40
2019-03-29T04:08:11.050Z,0.50
2019-03-29T04:18:16.916Z,0.30
2019-03-29T04:28:22.647Z,0.20
2019-03-29T04:38:28.327Z,-0.10
2019-03-29T04:48:34.013Z,-0.10
2019-03-29T04:58:39.687Z,0.20
2019-03-29T05:08:45.360Z,0.40
2019-03-29T05:18:51.048Z,0.50
2019-03-29T05:28:56.984Z,0.90
2019-03-29T05:39:02.656Z,1.30
2019-03-29T05:49:09.349Z,1.70
2019-03-29T05:59:15.884Z,2.00
2019-03-29T06:09:21.637Z,2.50
2019-03-29T06:19:27.283Z,2.80
2019-03-29T06:29:37.321Z,2.90
2019-03-29T06:39:43.445Z,3.40
2019-03-29T06:49:49.045Z,3.80
2019-03-29T06:59:54.575Z,4.10
2019-03-29T07:20:07.283Z,5.40
2019-03-29T07:30:13.860Z,6.00
2019-03-29T07:40:19.481Z,6.40
2019-03-29T07:50:24.998Z,6.80
2019-03-29T08:00:31.503Z,7.00
2019-03-29T08:10:37.140Z,7.40
2019-03-29T08:20:44.534Z,8.10
2019-03-29T08:30:49.783Z,8.70
2019-03-29T08:40:55.310Z,8.30
2019-03-29T08:51:05.633Z,8.60
2019-03-29T09:01:11.228Z,9.40
2019-03-29T09:11:16.829Z,10.20
2019-03-29T09:21:22.449Z,11.00
2019-03-29T09:31:28.107Z,11.20
2019-03-29T09:41:33.826Z,10.80
2019-03-29T09:51:39.663Z,10.80
2019-03-29T10:01:45.473Z,11.10
2019-03-29T10:11:51.115Z,11.60
2019-03-29T10:21:56.663Z,11.90
2019-03-29T10:32:05.496Z,11.90
2019-03-29T10:42:09.549Z,11.80
2019-03-29T10:52:15.117Z,11.80
2019-03-29T11:02:23.597Z,11.70
2019-03-29T11:12:29.288Z,11.80
2019-03-29T11:22:34.939Z,12.10
2019-03-29T11:32:40.598Z,12.60
2019-03-29T11:42:46.328Z,13.00
2019-03-29T11:52:51.999Z,12.90
2019-03-29T12:02:57.605Z,12.40
2019-03-29T12:13:18.971Z,13.00
2019-03-29T12:34:23.258Z,13.70
2019-03-29T12:44:28.957Z,13.80
2019-03-29T12:54:34.678Z,15.10
2019-03-29T13:04:41.243Z,15.30
2019-03-29T13:14:46.835Z,14.40
2019-03-29T13:24:52.444Z,13.70
2019-03-29T13:34:58.079Z,13.50
2019-03-29T13:45:03.687Z,14.20
2019-03-29T13:55:10.362Z,14.60
2019-03-29T14:05:16.117Z,14.10
2019-03-29T14:15:28.240Z,14.00
2019-03-29T14:25:33.844Z,14.50
2019-03-29T14:35:39.691Z,14.90
2019-03-29T14:45:45.312Z,14.20
2019-03-29T14:55:51.038Z,13.50
2019-03-29T15:06:15.438Z,13.50
2019-03-29T15:16:22.312Z,13.70
2019-03-29T15:26:28.019Z,14.30
2019-03-29T15:36:33.586Z,15.00
2019-03-29T15:46:39.721Z,14.90
2019-03-29T15:56:45.521Z,14.80
2019-03-29T16:06:51.078Z,14.60
2019-03-29T16:16:56.704Z,14.20
2019-03-29T16:27:02.229Z,13.80
2019-03-29T16:37:09.533Z,13.30
2019-03-29T16:47:15.346Z,12.90
2019-03-29T16:57:20.854Z,12.20
2019-03-29T17:07:26.517Z,11.60
2019-03-29T17:17:32.238Z,11.00
2019-03-29T17:27:37.865Z,10.50
2019-03-29T17:37:43.766Z,10.10
2019-03-29T17:47:49.837Z,9.70
2019-03-29T18:08:28.091Z,9.30
2019-03-29T18:18:34.115Z,8.80
2019-03-29T18:28:40.159Z,8.50
2019-03-29T18:38:47.691Z,8.40
2019-03-29T18:48:53.718Z,8.30
2019-03-29T18:58:59.641Z,8.00
2019-03-29T19:09:37.443Z,7.80
2019-03-29T19:30:34.777Z,7.40
2019-03-29T19:40:40.957Z,7.30
2019-03-29T19:50:47.274Z,7.20
2019-03-29T20:01:00.405Z,7.00
2019-03-29T20:11:02.971Z,6.80
2019-03-29T20:21:20.864Z,6.70
2019-03-29T20:31:30.850Z,6.60
2019-03-29T20:41:37.104Z,6.50
2019-03-29T20:51:43.038Z,6.50
2019-03-29T21:01:52.732Z,6.30
2019-03-29T21:11:57.771Z,6.20
2019-03-29T21:22:03.761Z,6.20
2019-03-29T21:32:12.265Z,6.00
2019-03-29T21:42:19.861Z,5.90
2019-03-29T21:52:26.542Z,5.80
2019-03-29T22:02:33.078Z,5.80
2019-03-29T22:12:39.077Z,5.60
2019-03-29T22:22:46.250Z,5.40
2019-03-29T22:32:51.878Z,5.30
2019-03-29T22:42:57.530Z,5.10
2019-03-29T22:53:03.184Z,5.00
2019-03-29T23:03:09.013Z,4.80
2019-03-29T23:13:14.631Z,4.60
2019-03-29T23:23:20.173Z,4.20
2019-03-29T23:33:25.906Z,4.10
2019-03-29T23:43:31.633Z,4.20
2019-03-29T23:53:38.525Z,4.20
